Time;durP1;ratioP1;P1;durP2;ratioP2;P2;SDS_P1;SDS_P2;PMS_P1;PMS_P2;Temp;Humidity;BMP_temperature;BMP_pressure;BME280_temperature;BME280_humidity;BME280_pressure;Samples;Min_cycle;Max_cycle;Signal;HPM_P1;HPM_P2
2021/07/10 00:00:08;;;;;;;8.35;2.13;;;20.20;84.10;;;;;;5097241;28;20028;-70
2021/07/10 00:02:34;;;;;;;2.60;1.90;;;20.10;83.40;;;;;;5097332;28;20028;-70
2021/07/10 00:05:00;;;;;;;3.22;1.80;;;20.30;83.40;;;;;;5097557;28;20034;-70
2021/07/10 00:07:26;;;;;;;2.40;1.80;;;20.30;83.20;;;;;;5097444;28;20023;-70
2021/07/10 00:09:52;;;;;;;2.65;1.70;;;20.40;82.40;;;;;;5097360;28;20052;-70
2021/07/10 00:12:17;;;;;;;5.70;1.77;;;20.50;81.80;;;;;;5097335;28;20024;-70
2021/07/10 00:14:43;;;;;;;2.50;2.00;;;20.60;82.40;;;;;;5097517;28;20042;-70
2021/07/10 00:17:09;;;;;;;3.75;1.55;;;20.50;82.10;;;;;;5096889;28;20020;-70
2021/07/10 00:19:35;;;;;;;3.15;1.80;;;20.50;82.10;;;;;;5101556;28;20027;-70
2021/07/10 00:22:00;;;;;;;5.88;2.05;;;20.40;82.00;;;;;;5100939;28;20308;-70
2021/07/10 00:24:30;;;;;;;5.35;1.20;;;20.40;82.60;;;;;;5097161;28;20044;-69
2021/07/10 00:26:57;;;;;;;2.92;1.55;;;20.30;82.90;;;;;;5097367;28;20367;-70
2021/07/10 00:29:22;;;;;;;2.03;1.50;;;20.30;83.30;;;;;;5097112;28;20028;-70
2021/07/10 00:31:48;;;;;;;4.93;1.63;;;20.20;82.60;;;;;;5096806;28;20052;-70
2021/07/10 00:34:13;;;;;;;2.58;1.63;;;20.20;83.20;;;;;;5097036;28;20320;-70
2021/07/10 00:36:39;;;;;;;2.28;1.98;;;20.10;83.90;;;;;;5106090;28;20351;-71
2021/07/10 00:39:05;;;;;;;5.18;2.17;;;20.10;83.00;;;;;;5117331;28;20054;-71
2021/07/10 00:41:31;;;;;;;2.00;1.70;;;20.20;81.40;;;;;;5117411;28;20062;-71
2021/07/10 00:43:56;;;;;;;4.28;2.10;;;20.30;81.00;;;;;;5117124;28;20036;-72
2021/07/10 00:46:22;;;;;;;4.45;2.10;;;20.30;80.90;;;;;;5117073;28;20376;-72
2021/07/10 00:48:48;;;;;;;3.88;2.08;;;20.20;80.90;;;;;;5117190;28;20035;-72
2021/07/10 00:51:15;;;;;;;2.22;2.00;;;20.30;81.20;;;;;;5117020;28;20016;-72
2021/07/10 00:53:41;;;;;;;4.68;2.20;;;20.20;81.20;;;;;;5117272;28;20066;-70
2021/07/10 00:56:07;;;;;;;4.45;2.08;;;20.20;81.20;;;;;;5117794;28;20024;-70
2021/07/10 00:58:33;;;;;;;3.95;3.00;;;20.30;81.20;;;;;;5121501;28;20023;-70
2021/07/10 01:01:01;;;;;;;6.50;2.80;;;20.30;81.30;;;;;;5121460;28;20077;-70
2021/07/10 01:03:30;;;;;;;5.60;2.72;;;20.30;81.50;;;;;;5121423;28;20043;-69
2021/07/10 01:05:56;;;;;;;4.45;2.20;;;20.30;81.80;;;;;;5121320;28;20031;-69
2021/07/10 01:08:22;;;;;;;6.28;2.75;;;20.30;82.80;;;;;;5121263;28;20034;-69
2021/07/10 01:10:48;;;;;;;3.50;2.70;;;20.10;83.00;;;;;;5120976;28;20481;-70
2021/07/10 01:13:15;;;;;;;5.72;3.33;;;20.00;83.40;;;;;;5121140;28;20034;-71
2021/07/10 01:15:41;;;;;;;7.57;3.22;;;20.00;83.30;;;;;;5121163;28;20319;-70
2021/07/10 01:18:06;;;;;;;10.32;4.10;;;20.00;83.70;;;;;;5121139;28;20024;-70
2021/07/10 01:20:32;;;;;;;8.27;4.78;;;20.00;83.20;;;;;;5121130;28;20124;-70
2021/07/10 01:22:58;;;;;;;6.13;4.65;;;20.00;82.90;;;;;;5120999;28;20028;-70
2021/07/10 01:25:27;;;;;;;7.00;4.40;;;20.00;83.30;;;;;;5120997;28;20113;-70
2021/07/10 01:27:55;;;;;;;4.22;3.00;;;20.10;83.10;;;;;;5120907;28;20024;-70
2021/07/10 01:30:22;;;;;;;5.72;2.35;;;20.10;83.70;;;;;;5120794;28;20032;-70
2021/07/10 01:32:50;;;;;;;4.75;3.08;;;20.10;83.90;;;;;;5120351;28;20047;-71
2021/07/10 01:35:17;;;;;;;21.42;3.20;;;20.00;82.70;;;;;;5120532;28;20024;-70
2021/07/10 01:37:43;;;;;;;4.07;2.35;;;20.00;82.00;;;;;;5120402;28;20031;-70
2021/07/10 01:40:12;;;;;;;4.95;1.65;;;20.00;81.50;;;;;;5120709;28;20027;-70
2021/07/10 01:42:39;;;;;;;1.73;1.38;;;20.20;81.80;;;;;;5120306;28;20031;-70
2021/07/10 01:45:05;;;;;;;2.95;1.65;;;20.30;81.20;;;;;;5120543;28;20039;-70
2021/07/10 01:47:30;;;;;;;1.60;1.45;;;20.40;80.80;;;;;;5120591;28;20020;-70
2021/07/10 01:49:56;;;;;;;5.22;2.63;;;20.50;80.90;;;;;;5120454;28;20024;-70
2021/07/10 01:52:22;;;;;;;5.50;3.05;;;20.60;78.90;;;;;;5120468;28;20058;-70
2021/07/10 01:54:48;;;;;;;5.20;1.95;;;20.70;79.10;;;;;;5120455;28;20020;-70
2021/07/10 01:57:14;;;;;;;1.88;1.58;;;20.70;79.40;;;;;;5120015;28;20415;-72
2021/07/10 01:59:40;;;;;;;2.60;1.63;;;20.70;79.80;;;;;;5120352;28;20134;-70
2021/07/10 02:02:06;;;;;;;4.82;1.88;;;20.60;80.20;;;;;;5120320;28;20416;-70
2021/07/10 02:04:42;;;;;;;2.85;2.10;;;20.50;80.00;;;;;;5120236;28;20416;-69
2021/07/10 02:07:08;;;;;;;2.88;1.45;;;20.50;79.80;;;;;;5119269;28;20360;-70
2021/07/10 02:09:34;;;;;;;4.10;1.60;;;20.40;82.30;;;;;;5120061;28;20106;-70
2021/07/10 02:12:00;;;;;;;2.63;1.83;;;20.20;82.60;;;;;;5120047;28;20392;-72
2021/07/10 02:14:25;;;;;;;2.95;1.50;;;20.10;82.50;;;;;;5119658;28;20447;-70
2021/07/10 02:16:51;;;;;;;1.85;1.60;;;20.10;82.50;;;;;;5119618;28;20036;-72
2021/07/10 02:19:17;;;;;;;2.85;1.90;;;20.10;83.10;;;;;;5119937;28;20035;-72
2021/07/10 02:21:43;;;;;;;5.82;1.50;;;20.00;83.10;;;;;;5119567;28;20473;-70
2021/07/10 02:24:08;;;;;;;4.32;1.60;;;19.90;83.70;;;;;;5119844;28;20020;-70
2021/07/10 02:26:35;;;;;;;4.47;2.22;;;19.90;83.30;;;;;;5119799;28;20415;-70
2021/07/10 02:29:01;;;;;;;2.20;1.83;;;19.90;82.80;;;;;;5119625;28;20030;-70
2021/07/10 02:31:26;;;;;;;2.17;1.70;;;19.90;82.60;;;;;;5119428;28;20051;-70
2021/07/10 02:33:52;;;;;;;2.42;2.00;;;19.90;82.00;;;;;;5119353;28;20078;-70
2021/07/10 02:36:18;;;;;;;1.90;1.60;;;19.90;82.80;;;;;;5119626;28;20024;-70
2021/07/10 02:38:45;;;;;;;2.38;1.70;;;19.90;82.70;;;;;;5119626;28;20059;-70
2021/07/10 02:41:12;;;;;;;3.70;1.40;;;20.00;82.30;;;;;;5119274;28;20024;-70
2021/07/10 02:43:37;;;;;;;1.80;1.27;;;20.00;82.40;;;;;;5119511;28;20315;-71
2021/07/10 02:46:04;;;;;;;3.80;1.50;;;19.90;82.60;;;;;;5119102;28;20028;-71
2021/07/10 02:48:29;;;;;;;1.90;1.25;;;19.90;82.50;;;;;;5119294;28;20027;-71
2021/07/10 02:50:55;;;;;;;3.80;1.50;;;19.80;83.70;;;;;;5119300;28;20024;-71
2021/07/10 02:53:21;;;;;;;5.07;1.77;;;19.80;82.40;;;;;;5119010;28;20042;-71
2021/07/10 02:55:47;;;;;;;1.75;1.20;;;19.70;83.10;;;;;;5118901;28;20024;-72
2021/07/10 02:58:13;;;;;;;6.53;1.50;;;19.70;83.00;;;;;;5119195;28;20031;-71
2021/07/10 03:00:39;;;;;;;1.65;1.40;;;19.80;82.70;;;;;;5118826;28;20028;-71
2021/07/10 03:03:05;;;;;;;1.80;1.20;;;19.80;80.90;;;;;;5119079;28;20058;-72
2021/07/10 03:05:33;;;;;;;1.95;1.23;;;19.90;79.50;;;;;;5118745;28;20396;-72
2021/07/10 03:08:00;;;;;;;3.83;1.35;;;20.10;79.10;;;;;;5119025;28;20050;-72
2021/07/10 03:10:29;;;;;;;2.63;1.30;;;20.30;78.40;;;;;;5118834;28;20030;-71
2021/07/10 03:12:56;;;;;;;1.30;1.02;;;20.40;78.00;;;;;;5118903;28;20358;-71
2021/07/10 03:15:22;;;;;;;1.95;1.30;;;20.50;77.00;;;;;;5118503;28;20028;-71
2021/07/10 03:17:49;;;;;;;2.28;1.48;;;20.60;77.20;;;;;;5118825;28;20015;-71
2021/07/10 03:20:16;;;;;;;1.88;1.05;;;20.60;76.70;;;;;;5117522;28;20034;-69
2021/07/10 03:22:42;;;;;;;1.98;1.00;;;20.80;76.20;;;;;;5118716;28;20028;-70
2021/07/10 03:25:10;;;;;;;4.25;1.42;;;20.90;76.80;;;;;;5118632;28;20050;-69
2021/07/10 03:27:36;;;;;;;3.03;1.15;;;20.90;74.90;;;;;;5118346;28;20111;-70
2021/07/10 03:30:05;;;;;;;2.58;1.20;;;21.10;75.40;;;;;;5118474;28;20107;-70
2021/07/10 03:32:30;;;;;;;3.70;1.25;;;21.10;76.20;;;;;;5118123;28;20036;-71
2021/07/10 03:34:56;;;;;;;3.15;1.20;;;21.10;75.30;;;;;;5118536;28;20453;-71
2021/07/10 03:37:22;;;;;;;2.45;1.27;;;21.10;76.30;;;;;;5118090;28;20408;-70
2021/07/10 03:39:47;;;;;;;2.45;1.20;;;21.10;76.60;;;;;;5118374;28;20050;-70
2021/07/10 03:42:13;;;;;;;3.63;1.48;;;21.00;77.20;;;;;;5118333;28;20027;-71
2021/07/10 03:44:39;;;;;;;5.22;1.33;;;21.00;77.20;;;;;;5118492;28;20036;-71
2021/07/10 03:47:05;;;;;;;2.88;1.35;;;20.90;78.00;;;;;;5118185;28;20130;-70
2021/07/10 03:49:30;;;;;;;3.40;1.23;;;20.80;78.10;;;;;;5117819;28;20316;-71
2021/07/10 03:51:56;;;;;;;2.72;1.48;;;20.80;76.50;;;;;;5118144;28;20102;-71
2021/07/10 03:54:22;;;;;;;3.65;1.30;;;20.80;76.30;;;;;;5118086;28;20043;-71
2021/07/10 03:56:48;;;;;;;1.45;1.02;;;20.80;77.20;;;;;;5117745;28;20038;-71
2021/07/10 03:59:13;;;;;;;3.75;1.63;;;20.90;75.90;;;;;;5118010;28;20035;-71
2021/07/10 04:01:41;;;;;;;1.67;0.93;;;21.00;75.80;;;;;;5117984;28;20020;-70
2021/07/10 04:04:08;;;;;;;4.10;1.67;;;21.10;75.60;;;;;;5117922;28;20391;-71
2021/07/10 04:06:34;;;;;;;1.65;1.20;;;21.10;75.00;;;;;;5117896;28;20028;-71
2021/07/10 04:09:00;;;;;;;2.03;1.30;;;21.10;74.90;;;;;;5117763;28;20040;-71
2021/07/10 04:11:26;;;;;;;2.45;1.17;;;21.20;75.10;;;;;;5117524;28;20016;-71
2021/07/10 04:13:51;;;;;;;3.58;1.08;;;21.20;74.90;;;;;;5117661;28;20035;-69
2021/07/10 04:16:17;;;;;;;3.78;1.30;;;21.30;74.70;;;;;;5117721;28;20028;-69
2021/07/10 04:18:43;;;;;;;2.08;1.23;;;21.20;75.10;;;;;;5117689;28;20032;-70
2021/07/10 04:21:10;;;;;;;1.42;1.00;;;21.30;75.80;;;;;;5117381;28;20024;-70
2021/07/10 04:23:35;;;;;;;3.35;1.20;;;21.30;76.70;;;;;;5117332;28;20479;-70
2021/07/10 04:26:01;;;;;;;3.13;1.83;;;21.20;77.70;;;;;;5117589;28;20106;-71
2021/07/10 04:28:27;;;;;;;3.55;1.35;;;21.10;78.50;;;;;;5117518;28;20038;-70
2021/07/10 04:30:52;;;;;;;2.42;1.30;;;21.00;79.30;;;;;;5116843;28;20055;-71
2021/07/10 04:33:18;;;;;;;3.15;1.45;;;20.90;79.80;;;;;;5117538;28;20027;-69
2021/07/10 04:35:43;;;;;;;4.35;1.38;;;20.80;80.70;;;;;;5117486;28;20016;-69
2021/07/10 04:38:09;;;;;;;2.55;1.38;;;20.60;81.20;;;;;;5117460;28;20370;-70
2021/07/10 04:40:35;;;;;;;2.33;1.30;;;20.60;82.00;;;;;;5117108;28;20445;-70
2021/07/10 04:43:00;;;;;;;4.18;1.30;;;20.60;79.10;;;;;;5117125;28;20089;-71
2021/07/10 04:45:28;;;;;;;3.63;1.60;;;20.80;78.40;;;;;;5117085;28;20028;-71
2021/07/10 04:47:54;;;;;;;3.50;1.33;;;21.00;76.90;;;;;;5117375;28;20051;-71
2021/07/10 04:50:21;;;;;;;2.90;1.30;;;21.20;76.70;;;;;;5117218;28;20054;-71
2021/07/10 04:52:47;;;;;;;2.58;1.38;;;21.30;76.20;;;;;;5117009;28;20027;-71
2021/07/10 04:55:14;;;;;;;3.35;1.40;;;21.40;76.10;;;;;;5117258;28;20050;-71
2021/07/10 04:57:41;;;;;;;3.88;1.30;;;21.50;76.20;;;;;;5116998;28;20047;-71
2021/07/10 05:00:08;;;;;;;3.85;1.70;;;21.60;75.90;;;;;;5117252;28;20390;-71
2021/07/10 05:02:34;;;;;;;1.85;1.20;;;21.60;76.40;;;;;;5117244;28;20024;-71
2021/07/10 05:05:00;;;;;;;4.80;1.10;;;21.70;76.80;;;;;;5117262;28;20096;-71
2021/07/10 05:07:25;;;;;;;1.75;1.30;;;21.70;75.90;;;;;;5116847;28;20065;-71
2021/07/10 05:09:51;;;;;;;2.22;1.15;;;21.80;77.20;;;;;;5116773;28;20065;-71
2021/07/10 05:12:20;;;;;;;3.40;1.20;;;21.80;75.10;;;;;;5117140;28;20351;-71
2021/07/10 05:14:47;;;;;;;1.58;1.23;;;21.80;75.80;;;;;;5117371;28;20035;-71
2021/07/10 05:17:12;;;;;;;1.88;1.23;;;21.80;76.30;;;;;;5116749;28;20035;-71
2021/07/10 05:19:38;;;;;;;2.67;1.30;;;21.90;77.10;;;;;;5116750;28;20057;-71
2021/07/10 05:22:04;;;;;;;1.50;1.20;;;21.90;77.00;;;;;;5116762;28;20069;-71
2021/07/10 05:24:30;;;;;;;3.03;1.20;;;22.00;76.70;;;;;;5116734;28;20078;-71
2021/07/10 05:26:55;;;;;;;4.28;1.65;;;22.00;78.50;;;;;;5116971;28;20039;-71
2021/07/10 05:29:21;;;;;;;3.67;1.08;;;22.10;78.70;;;;;;5116879;28;20477;-71
2021/07/10 05:31:47;;;;;;;1.73;1.30;;;22.10;79.30;;;;;;5116503;28;20478;-71
2021/07/10 05:34:12;;;;;;;2.10;1.27;;;22.20;79.50;;;;;;5116920;28;20050;-71
2021/07/10 05:36:38;;;;;;;1.13;1.00;;;22.30;80.20;;;;;;5116912;28;20395;-71
2021/07/10 05:39:04;;;;;;;3.17;1.40;;;22.40;80.70;;;;;;5116872;28;20332;-71
2021/07/10 05:41:30;;;;;;;3.22;1.42;;;22.40;77.90;;;;;;5116898;28;20358;-71
2021/07/10 05:43:55;;;;;;;3.83;2.13;;;22.40;78.00;;;;;;5120377;28;20088;-71
2021/07/10 05:46:21;;;;;;;1.52;1.20;;;22.40;76.10;;;;;;5120255;28;20027;-71
2021/07/10 05:48:47;;;;;;;2.65;1.20;;;22.50;76.20;;;;;;5120485;28;20101;-71
2021/07/10 05:51:13;;;;;;;1.23;1.02;;;22.60;75.50;;;;;;5120521;28;20408;-71
2021/07/10 05:53:38;;;;;;;3.65;1.15;;;22.60;75.00;;;;;;5120208;28;20024;-71
2021/07/10 05:56:04;;;;;;;2.33;1.25;;;22.70;75.30;;;;;;5120425;28;20024;-71
2021/07/10 05:58:29;;;;;;;2.08;1.33;;;22.90;75.90;;;;;;5120380;28;20020;-71
2021/07/10 06:00:55;;;;;;;2.83;1.10;;;23.00;74.60;;;;;;5120347;28;20019;-71
2021/07/10 06:03:21;;;;;;;1.38;0.95;;;23.10;75.40;;;;;;5120285;28;20020;-71
2021/07/10 06:05:46;;;;;;;4.03;1.10;;;23.30;75.10;;;;;;5120272;28;20316;-71
2021/07/10 06:08:12;;;;;;;2.00;1.02;;;23.40;75.50;;;;;;5119922;28;20339;-71
2021/07/10 06:10:38;;;;;;;1.30;1.10;;;23.50;75.90;;;;;;5120066;28;20051;-71
2021/07/10 06:13:04;;;;;;;3.80;1.20;;;23.70;74.10;;;;;;5119985;28;20328;-71
2021/07/10 06:15:30;;;;;;;3.13;1.30;;;23.90;74.40;;;;;;5120036;28;20316;-71
2021/07/10 06:17:55;;;;;;;2.00;1.20;;;24.10;75.80;;;;;;5119744;28;20020;-71
2021/07/10 06:20:22;;;;;;;3.10;1.00;;;24.40;74.60;;;;;;5119682;28;20073;-71
2021/07/10 06:22:49;;;;;;;3.92;1.10;;;24.80;71.40;;;;;;5119957;28;20066;-71
2021/07/10 06:25:16;;;;;;;2.05;0.90;;;25.20;69.20;;;;;;5119552;28;20407;-69
2021/07/10 06:27:43;;;;;;;1.77;1.13;;;25.50;68.90;;;;;;5119521;28;20054;-69
2021/07/10 06:30:11;;;;;;;5.90;1.20;;;25.70;69.50;;;;;;5119708;28;20069;-69
2021/07/10 06:32:38;;;;;;;2.13;1.10;;;26.10;65.80;;;;;;5119303;28;20051;-69
2021/07/10 06:35:05;;;;;;;7.85;0.90;;;26.60;63.80;;;;;;5119450;28;20041;-69
2021/07/10 06:37:31;;;;;;;1.98;1.00;;;27.40;62.40;;;;;;5119346;28;20427;-70
2021/07/10 06:39:56;;;;;;;2.05;0.80;;;28.10;62.20;;;;;;5119589;28;20035;-70
2021/07/10 06:42:22;;;;;;;3.15;1.23;;;28.90;62.30;;;;;;5119571;28;20336;-70
2021/07/10 06:44:48;;;;;;;1.98;0.90;;;29.50;61.20;;;;;;5119116;28;20039;-70
2021/07/10 06:47:14;;;;;;;1.45;0.80;;;29.90;58.50;;;;;;5119431;28;20023;-70
2021/07/10 06:49:40;;;;;;;1.52;0.93;;;30.30;56.80;;;;;;5119338;28;20031;-70
2021/07/10 06:52:07;;;;;;;1.17;0.60;;;30.70;59.40;;;;;;5119400;28;20023;-70
2021/07/10 06:54:33;;;;;;;1.55;0.90;;;30.90;58.30;;;;;;5118935;28;20081;-70
2021/07/10 06:56:59;;;;;;;2.55;1.00;;;31.10;59.00;;;;;;5118922;28;20111;-70
2021/07/10 06:59:25;;;;;;;3.55;1.05;;;31.40;61.20;;;;;;5118916;28;20107;-70
2021/07/10 07:01:51;;;;;;;2.08;0.80;;;31.70;59.00;;;;;;5118879;28;20024;-70
2021/07/10 07:04:19;;;;;;;2.15;0.70;;;31.80;56.70;;;;;;5119108;28;20032;-70
2021/07/10 07:06:45;;;;;;;1.63;0.90;;;31.80;57.50;;;;;;5119026;28;20103;-70
2021/07/10 07:09:11;;;;;;;3.33;1.00;;;31.70;56.60;;;;;;5118628;28;20118;-70
2021/07/10 07:11:37;;;;;;;1.83;1.00;;;31.60;57.10;;;;;;5118672;28;20055;-70
2021/07/10 07:14:03;;;;;;;2.25;1.02;;;31.70;58.00;;;;;;5119019;28;20036;-70
2021/07/10 07:16:28;;;;;;;2.45;0.75;;;31.90;56.70;;;;;;5118854;28;20336;-70
2021/07/10 07:18:54;;;;;;;1.88;1.02;;;31.90;55.80;;;;;;5118839;28;20058;-70
2021/07/10 07:21:20;;;;;;;4.20;1.10;;;32.10;57.10;;;;;;5118790;28;20304;-70
2021/07/10 07:23:45;;;;;;;1.75;1.10;;;32.00;55.80;;;;;;5118695;28;20052;-70
2021/07/10 07:26:11;;;;;;;4.03;0.75;;;32.00;56.60;;;;;;5118355;28;20370;-70
2021/07/10 07:28:37;;;;;;;2.95;1.20;;;32.10;53.40;;;;;;5118260;28;20027;-70
2021/07/10 07:31:05;;;;;;;2.13;0.80;;;32.00;53.30;;;;;;5118371;28;20042;-70
2021/07/10 07:33:31;;;;;;;1.48;0.90;;;32.00;54.50;;;;;;5118544;28;20023;-70
2021/07/10 07:35:57;;;;;;;2.28;0.93;;;31.90;55.90;;;;;;5118487;28;20024;-70
2021/07/10 07:38:23;;;;;;;3.78;0.93;;;31.70;53.30;;;;;;5118458;28;20027;-70
2021/07/10 07:40:49;;;;;;;2.30;1.00;;;32.00;53.40;;;;;;5118368;28;20020;-70
2021/07/10 07:43:15;;;;;;;3.25;1.10;;;31.90;54.60;;;;;;5118113;28;20473;-71
2021/07/10 07:45:40;;;;;;;3.53;1.20;;;31.90;54.40;;;;;;5118247;28;20032;-70
2021/07/10 07:48:07;;;;;;;2.05;1.13;;;31.70;55.80;;;;;;5118277;28;20030;-71
2021/07/10 07:50:33;;;;;;;2.13;0.90;;;31.70;55.80;;;;;;5118096;28;20047;-70
2021/07/10 07:52:59;;;;;;;2.75;1.45;;;31.90;54.50;;;;;;5118165;28;20038;-71
2021/07/10 07:55:25;;;;;;;3.30;1.13;;;32.20;55.00;;;;;;5118126;28;20404;-71
2021/07/10 07:57:50;;;;;;;2.20;1.40;;;32.40;55.50;;;;;;5117777;28;20372;-71
2021/07/10 08:00:20;;;;;;;3.40;1.50;;;32.40;53.80;;;;;;5117989;28;20042;-71
2021/07/10 08:02:47;;;;;;;2.25;1.35;;;32.60;54.00;;;;;;5117688;28;20047;-70
2021/07/10 08:05:13;;;;;;;5.93;1.38;;;32.40;55.20;;;;;;5117110;28;20461;-70
2021/07/10 08:07:40;;;;;;;1.45;1.10;;;32.20;56.00;;;;;;5117936;28;20026;-70
2021/07/10 08:10:12;;;;;;;4.47;1.02;;;32.20;57.00;;;;;;5117397;28;20034;-70
2021/07/10 08:12:38;;;;;;;4.53;1.20;;;32.50;56.90;;;;;;5117847;28;20022;-70
2021/07/10 08:15:06;;;;;;;2.20;1.30;;;32.80;54.60;;;;;;5117879;28;20357;-70
2021/07/10 08:17:32;;;;;;;3.85;1.35;;;32.80;55.20;;;;;;5117811;28;20043;-70
2021/07/10 08:19:58;;;;;;;4.10;1.00;;;32.90;55.90;;;;;;5117413;28;20068;-70
2021/07/10 08:22:23;;;;;;;3.25;1.55;;;32.80;55.80;;;;;;5117695;28;20020;-70
2021/07/10 08:24:49;;;;;;;4.72;1.85;;;32.90;55.90;;;;;;5117629;28;20027;-70
2021/07/10 08:27:15;;;;;;;4.25;1.38;;;32.60;56.40;;;;;;5117594;28;20019;-70
2021/07/10 08:29:42;;;;;;;2.28;1.35;;;32.30;56.10;;;;;;5117517;28;20107;-70
2021/07/10 08:32:08;;;;;;;4.03;1.58;;;32.30;56.80;;;;;;5117153;28;20082;-70
2021/07/10 08:34:34;;;;;;;4.30;1.35;;;32.70;56.80;;;;;;5117567;28;20027;-71
2021/07/10 08:37:02;;;;;;;2.13;1.52;;;32.70;54.70;;;;;;5117109;28;20385;-71
2021/07/10 08:39:28;;;;;;;4.53;1.45;;;32.80;54.10;;;;;;5117182;28;20032;-71
2021/07/10 08:41:54;;;;;;;2.83;1.33;;;32.50;55.40;;;;;;5117494;28;20031;-71
2021/07/10 08:44:20;;;;;;;2.08;1.27;;;32.10;57.50;;;;;;5117461;28;20350;-71
2021/07/10 08:46:47;;;;;;;2.08;1.02;;;32.10;55.10;;;;;;5117067;28;20036;-71
2021/07/10 08:49:16;;;;;;;2.03;1.10;;;32.40;56.10;;;;;;5117331;28;20470;-71
2021/07/10 08:51:46;;;;;;;2.78;1.13;;;32.70;56.00;;;;;;5116971;28;20020;-71
2021/07/10 08:54:13;;;;;;;1.92;1.10;;;33.00;53.70;;;;;;5117321;28;20355;-71
2021/07/10 08:56:40;;;;;;;2.78;1.05;;;33.00;51.00;;;;;;5116922;28;20475;-71
2021/07/10 08:59:09;;;;;;;1.83;1.10;;;33.20;56.20;;;;;;5117302;28;20023;-71
2021/07/10 09:01:34;;;;;;;3.30;1.40;;;32.90;53.90;;;;;;5116995;28;20031;-71
2021/07/10 09:04:00;;;;;;;4.18;1.20;;;33.00;53.90;;;;;;5117195;28;20021;-71
2021/07/10 09:06:26;;;;;;;2.97;1.40;;;32.60;57.10;;;;;;5116868;28;20468;-71
2021/07/10 09:08:55;;;;;;;2.28;1.00;;;32.40;53.90;;;;;;5117140;28;20107;-71
2021/07/10 09:11:22;;;;;;;2.45;1.13;;;32.70;54.40;;;;;;5117169;28;20023;-71
2021/07/10 09:13:53;;;;;;;5.28;1.27;;;32.50;53.90;;;;;;5117201;28;20047;-71
2021/07/10 09:16:29;;;;;;;1.60;0.80;;;32.50;54.40;;;;;;5117112;28;20035;-71
2021/07/10 09:19:00;;;;;;;1.65;1.00;;;33.00;57.10;;;;;;5120970;28;20024;-71
2021/07/10 09:21:50;;;;;;;2.67;1.15;;;33.50;52.90;;;;;;5120883;28;20417;-71
2021/07/10 09:24:23;;;;;;;3.58;1.00;;;34.10;54.50;;;;;;5121105;28;20032;-71
2021/07/10 09:26:51;;;;;;;2.78;1.20;;;34.20;54.10;;;;;;5120995;28;20042;-71
2021/07/10 09:29:22;;;;;;;3.38;1.20;;;34.30;53.20;;;;;;5120586;28;20030;-71
2021/07/10 09:32:02;;;;;;;2.30;1.17;;;33.90;49.00;;;;;;5120349;28;20047;-71
2021/07/10 09:34:33;;;;;;;2.78;1.13;;;33.70;50.40;;;;;;5120562;28;20400;-71
2021/07/10 09:37:12;;;;;;;1.63;0.88;;;33.60;56.60;;;;;;5120801;28;20031;-71
2021/07/10 09:39:43;;;;;;;1.75;1.10;;;33.60;53.80;;;;;;5120509;28;20027;-71
2021/07/10 09:42:10;;;;;;;3.70;0.90;;;33.90;50.70;;;;;;5120799;28;20100;-71
2021/07/10 09:44:48;;;;;;;1.70;1.02;;;34.30;55.60;;;;;;5120862;28;20313;-71
2021/07/10 09:47:16;;;;;;;3.58;1.10;;;34.10;54.20;;;;;;5120354;28;20117;-71
2021/07/10 09:49:44;;;;;;;3.25;1.00;;;34.20;55.20;;;;;;5120082;28;20039;-71
2021/07/10 09:52:13;;;;;;;1.52;0.93;;;34.50;51.70;;;;;;5120646;28;20358;-71
2021/07/10 09:54:44;;;;;;;1.83;0.85;;;34.80;51.60;;;;;;5120176;28;20045;-71
2021/07/10 09:57:15;;;;;;;3.72;1.00;;;34.60;49.50;;;;;;5120407;28;20030;-71
2021/07/10 09:59:52;;;;;;;2.67;1.15;;;34.40;52.80;;;;;;5120385;28;20047;-71
2021/07/10 10:02:28;;;;;;;2.33;1.00;;;34.20;50.30;;;;;;5120359;28;20081;-71
2021/07/10 10:05:10;;;;;;;1.38;0.88;;;34.10;54.00;;;;;;5120389;28;20113;-71
2021/07/10 10:07:48;;;;;;;1.75;0.90;;;34.10;52.10;;;;;;5120337;28;20108;-71
2021/07/10 10:10:34;;;;;;;1.40;1.00;;;34.40;56.00;;;;;;5119773;28;20419;-71
2021/07/10 10:13:07;;;;;;;3.15;1.00;;;34.40;51.60;;;;;;5120166;28;20311;-71
2021/07/10 10:15:34;;;;;;;8.20;1.10;;;34.40;52.10;;;;;;5119764;28;20031;-71
2021/07/10 10:18:00;;;;;;;1.50;0.80;;;34.30;55.20;;;;;;5114511;28;20019;-71
2021/07/10 10:20:26;;;;;;;1.27;0.85;;;34.30;52.70;;;;;;5110464;28;20076;-71
2021/07/10 10:22:52;;;;;;;1.60;0.70;;;34.10;51.90;;;;;;5099253;28;20408;-71
2021/07/10 10:25:18;;;;;;;1.75;0.70;;;34.20;52.60;;;;;;5099480;28;20031;-71
2021/07/10 10:27:48;;;;;;;2.47;1.00;;;34.00;49.70;;;;;;5098930;28;20032;-71
2021/07/10 10:30:16;;;;;;;3.88;0.90;;;33.90;50.80;;;;;;5099101;28;20482;-71
2021/07/10 10:32:44;;;;;;;3.38;0.90;;;33.90;53.00;;;;;;5098966;28;20093;-71
2021/07/10 10:35:10;;;;;;;1.45;0.80;;;33.80;55.10;;;;;;5098938;28;20407;-71
2021/07/10 10:37:37;;;;;;;1.65;0.80;;;34.00;52.00;;;;;;5099275;28;20036;-71
2021/07/10 10:40:08;;;;;;;3.60;0.90;;;34.10;51.10;;;;;;5099219;28;20030;-71
2021/07/10 10:42:34;;;;;;;5.50;1.02;;;34.30;52.50;;;;;;5099207;28;20036;-71
2021/07/10 10:45:03;;;;;;;1.27;0.80;;;33.60;50.40;;;;;;5099351;28;20059;-71
2021/07/10 10:47:51;;;;;;;1.23;0.88;;;33.80;50.70;;;;;;5099030;28;20040;-71
2021/07/10 10:50:17;;;;;;;2.75;1.00;;;33.80;52.50;;;;;;5098685;28;20070;-71
2021/07/10 10:52:48;;;;;;;1.73;0.75;;;33.70;54.60;;;;;;5098941;28;20158;-71
2021/07/10 10:55:16;;;;;;;1.90;1.02;;;33.60;51.00;;;;;;5098897;28;20028;-71
2021/07/10 10:57:53;;;;;;;1.90;0.90;;;33.70;47.20;;;;;;5098513;28;20450;-71
2021/07/10 11:00:35;;;;;;;2.85;1.08;;;33.70;47.80;;;;;;5098525;28;20063;-71
2021/07/10 11:03:05;;;;;;;2.33;0.95;;;33.70;51.70;;;;;;5098760;28;20051;-71
2021/07/10 11:05:31;;;;;;;1.40;0.85;;;33.80;49.90;;;;;;5098609;28;20074;-71
2021/07/10 11:08:21;;;;;;;1.70;1.10;;;33.80;54.30;;;;;;5098697;28;20401;-71
2021/07/10 11:10:47;;;;;;;2.40;1.05;;;33.70;51.90;;;;;;5098205;28;20024;-71
2021/07/10 11:13:33;;;;;;;3.78;1.10;;;33.80;51.00;;;;;;5098530;28;20138;-71
2021/07/10 11:16:06;;;;;;;2.78;1.20;;;33.80;51.60;;;;;;5098502;28;20028;-71
2021/07/10 11:18:56;;;;;;;2.03;0.95;;;33.60;46.10;;;;;;5098453;28;20028;-71
2021/07/10 11:21:48;;;;;;;3.70;0.93;;;33.40;52.50;;;;;;5098140;28;20044;-71
2021/07/10 11:24:20;;;;;;;3.95;1.08;;;33.40;54.40;;;;;;5098374;28;20032;-70
2021/07/10 11:26:54;;;;;;;3.30;1.20;;;33.40;55.00;;;;;;5098282;28;20029;-70
2021/07/10 11:29:24;;;;;;;3.88;0.95;;;33.60;51.10;;;;;;5097872;28;20056;-71
2021/07/10 11:31:54;;;;;;;1.50;1.10;;;33.50;53.60;;;;;;5097873;28;20122;-71
2021/07/10 11:34:40;;;;;;;5.32;1.00;;;33.30;54.30;;;;;;5098099;28;20020;-71
2021/07/10 11:37:14;;;;;;;2.40;1.10;;;33.20;52.50;;;;;;5087270;28;20416;-71
2021/07/10 11:39:43;;;;;;;2.28;1.20;;;33.00;48.70;;;;;;5097241;28;20149;-71
2021/07/10 11:42:17;;;;;;;3.80;1.00;;;32.30;51.50;;;;;;5098034;28;20102;-71
2021/07/10 11:44:44;;;;;;;2.30;1.13;;;32.10;54.90;;;;;;5098223;28;20036;-71
2021/07/10 11:47:10;;;;;;;2.30;1.10;;;32.10;57.30;;;;;;5097552;28;20028;-71
2021/07/10 11:49:35;;;;;;;2.45;0.93;;;32.20;53.60;;;;;;5097744;28;20028;-71
2021/07/10 11:52:20;;;;;;;1.15;0.90;;;32.00;53.50;;;;;;5097812;28;20030;-71
2021/07/10 11:54:54;;;;;;;2.38;1.02;;;31.80;52.30;;;;;;5097872;28;20359;-71
2021/07/10 11:57:21;;;;;;;2.53;0.90;;;31.80;55.20;;;;;;5097453;28;20046;-71
2021/07/10 11:59:47;;;;;;;2.13;0.85;;;31.80;53.30;;;;;;5097699;28;20030;-71
2021/07/10 12:02:21;;;;;;;1.17;0.90;;;31.70;51.70;;;;;;5097314;28;20028;-71
2021/07/10 12:05:13;;;;;;;3.90;1.38;;;31.60;52.10;;;;;;5097345;28;20478;-71
2021/07/10 12:07:43;;;;;;;3.95;1.10;;;31.40;54.30;;;;;;5097317;28;20025;-71
2021/07/10 12:10:12;;;;;;;1.85;1.20;;;31.20;55.30;;;;;;5097375;28;20035;-71
2021/07/10 12:12:56;;;;;;;1.50;1.05;;;31.20;54.10;;;;;;5097083;28;20030;-71
2021/07/10 12:15:34;;;;;;;1.42;1.33;;;30.90;55.90;;;;;;5097104;28;20032;-70
2021/07/10 12:18:02;;;;;;;1.88;1.15;;;30.60;55.70;;;;;;5097386;28;20027;-71
2021/07/10 12:20:31;;;;;;;4.45;1.10;;;30.40;54.20;;;;;;5097371;28;20038;-71
2021/07/10 12:23:14;;;;;;;4.45;1.42;;;30.20;58.20;;;;;;5096930;28;20123;-71
2021/07/10 12:25:48;;;;;;;6.45;1.65;;;30.20;57.20;;;;;;5097257;28;20054;-71
2021/07/10 12:28:15;;;;;;;4.35;1.30;;;30.30;62.10;;;;;;5096954;28;20419;-71
2021/07/10 12:30:47;;;;;;;1.98;1.20;;;30.30;56.00;;;;;;5097003;28;20293;-71
2021/07/10 12:33:38;;;;;;;1.35;0.95;;;30.30;59.10;;;;;;5097224;28;20372;-70
2021/07/10 12:36:07;;;;;;;3.28;1.30;;;30.20;57.20;;;;;;5097144;28;20086;-71
2021/07/10 12:38:35;;;;;;;1.98;1.27;;;30.10;57.90;;;;;;5096816;28;20483;-71
2021/07/10 12:41:22;;;;;;;3.38;1.38;;;30.10;57.20;;;;;;5097141;28;20044;-70
2021/07/10 12:43:49;;;;;;;3.67;1.27;;;29.90;56.20;;;;;;5096977;28;20024;-71
2021/07/10 12:46:15;;;;;;;2.45;1.45;;;29.90;56.80;;;;;;5096712;28;20408;-70
2021/07/10 12:48:41;;;;;;;1.92;1.17;;;29.60;54.70;;;;;;5096589;28;20074;-70
2021/07/10 12:51:07;;;;;;;2.47;1.13;;;29.50;59.30;;;;;;5098392;28;20074;-70